Time;durP1;ratioP1;P1;durP2;ratioP2;P2;SDS_P1;SDS_P2;PMS_P1;PMS_P2;Temp;Humidity;BMP_temperature;BMP_pressure;BME280_temperature;BME280_humidity;BME280_pressure;Samples;Min_cycle;Max_cycle;Signal;HPM_P1;HPM_P2
2022/07/04 00:00:50;;;;;;;6.30;3.25;;;;;;;15.09;100.00;99458.97;4894112;29;20036;-88
2022/07/04 00:03:15;;;;;;;6.50;3.45;;;;;;;15.00;100.00;99455.75;4903489;29;20039;-89
2022/07/04 00:05:41;;;;;;;5.25;2.63;;;;;;;15.25;100.00;99458.44;4890579;29;20036;-88
2022/07/04 00:08:08;;;;;;;6.53;2.60;;;;;;;15.18;100.00;99455.06;4897058;29;20041;-89
2022/07/04 00:10:34;;;;;;;6.05;2.80;;;;;;;15.18;100.00;99448.94;4905202;29;20052;-89
2022/07/04 00:12:59;;;;;;;5.65;2.67;;;;;;;15.24;100.00;99448.09;4903505;29;20048;-89
2022/07/04 00:15:25;;;;;;;2.75;2.25;;;;;;;15.19;100.00;99446.09;4890417;29;20028;-88
2022/07/04 00:17:51;;;;;;;5.75;2.70;;;;;;;15.26;100.00;99452.13;4889836;29;20494;-89
2022/07/04 00:20:17;;;;;;;4.13;2.30;;;;;;;15.32;100.00;99445.19;4885528;29;20037;-89
2022/07/04 00:22:44;;;;;;;7.57;3.05;;;;;;;15.19;100.00;99446.09;4889206;29;20059;-90
2022/07/04 00:25:10;;;;;;;3.95;2.53;;;;;;;15.20;100.00;99433.66;4889282;29;20070;-89
2022/07/04 00:27:36;;;;;;;5.70;2.90;;;;;;;15.27;100.00;99426.50;4904180;29;20040;-90
2022/07/04 00:30:03;;;;;;;5.50;2.50;;;;;;;15.01;100.00;99427.50;4902486;29;20025;-88
2022/07/04 00:32:29;;;;;;;6.97;2.42;;;;;;;15.27;100.00;99432.59;4901437;29;20127;-88
2022/07/04 00:34:54;;;;;;;7.75;2.67;;;;;;;15.29;100.00;99421.81;4907369;29;20073;-90
2022/07/04 00:37:20;;;;;;;5.45;2.55;;;;;;;15.25;100.00;99408.19;4886853;29;20032;-88
2022/07/04 00:39:46;;;;;;;5.40;2.40;;;;;;;15.40;100.00;99401.78;4891241;29;20161;-89
2022/07/04 00:42:11;;;;;;;4.00;2.25;;;;;;;15.44;100.00;99399.53;4909135;29;20472;-89
2022/07/04 00:44:37;;;;;;;3.13;2.47;;;;;;;15.48;100.00;99395.41;4906774;29;20032;-88
2022/07/04 00:47:04;;;;;;;2.20;2.00;;;;;;;15.51;100.00;99401.06;4904521;29;20112;-89
2022/07/04 00:49:29;;;;;;;4.47;2.40;;;;;;;15.47;100.00;99402.53;4906812;29;20032;-89
2022/07/04 00:51:55;;;;;;;5.57;2.45;;;;;;;15.35;100.00;99396.34;4886987;29;20039;-90
2022/07/04 00:54:27;;;;;;;3.15;2.20;;;;;;;15.45;100.00;99391.34;4903387;29;20156;-88
2022/07/04 00:56:54;;;;;;;2.85;2.20;;;;;;;15.42;100.00;99371.41;4890314;29;20499;-89
2022/07/04 00:59:20;;;;;;;4.65;2.30;;;;;;;15.31;100.00;99379.25;4905875;29;20119;-88
2022/07/04 01:01:45;;;;;;;2.20;1.92;;;;;;;15.41;100.00;99369.00;4870266;29;20123;-88
2022/07/04 01:04:11;;;;;;;3.47;2.45;;;;;;;15.40;100.00;99359.47;4907156;29;20048;-89
2022/07/04 01:06:37;;;;;;;2.35;2.03;;;;;;;15.42;100.00;99367.97;4905830;29;20432;-88
2022/07/04 01:09:04;;;;;;;6.25;2.83;;;;;;;15.13;100.00;99362.31;4891709;29;20056;-89
2022/07/04 01:11:30;;;;;;;3.17;2.15;;;;;;;15.26;100.00;99367.50;4906736;29;20037;-85
2022/07/04 01:13:57;;;;;;;3.38;2.22;;;;;;;15.32;100.00;99362.38;4906864;29;20059;-89
2022/07/04 01:16:25;;;;;;;5.00;2.40;;;;;;;15.44;100.00;99354.56;4908051;29;20038;-86
2022/07/04 01:18:52;;;;;;;3.17;2.38;;;;;;;15.37;100.00;99346.69;4906163;29;20033;-86
2022/07/04 01:21:17;;;;;;;5.45;2.33;;;;;;;15.34;100.00;99353.19;4890709;29;20036;-88
2022/07/04 01:23:43;;;;;;;3.47;2.33;;;;;;;15.41;100.00;99358.44;4907285;29;20040;-88
2022/07/04 01:26:09;;;;;;;3.80;2.13;;;;;;;15.45;100.00;99370.19;4890794;29;20036;-90
2022/07/04 01:28:35;;;;;;;3.67;1.92;;;;;;;15.41;100.00;99369.81;4915298;29;20416;-88
2022/07/04 01:31:01;;;;;;;5.55;2.70;;;;;;;15.37;100.00;99368.63;4893901;29;20032;-90
2022/07/04 01:33:27;;;;;;;3.35;1.95;;;;;;;15.44;100.00;99368.56;4893798;29;20035;-89
2022/07/04 01:35:53;;;;;;;2.28;1.90;;;;;;;15.49;100.00;99381.94;4899351;29;20036;-89
2022/07/04 01:38:18;;;;;;;2.40;1.85;;;;;;;15.51;100.00;99379.88;4907351;29;20112;-86
2022/07/04 01:40:45;;;;;;;2.33;2.10;;;;;;;15.52;100.00;99393.94;4880773;29;20122;-86
2022/07/04 01:43:10;;;;;;;2.97;2.20;;;;;;;15.55;100.00;99382.91;4892704;29;20028;-86
2022/07/04 01:45:39;;;;;;;5.05;2.42;;;;;;;15.33;100.00;99388.63;4893958;29;20063;-87
2022/07/04 01:48:06;;;;;;;4.38;1.90;;;;;;;15.50;100.00;99398.63;4913053;29;20031;-88
2022/07/04 01:50:33;;;;;;;3.92;1.90;;;;;;;15.45;100.00;99401.94;4897397;29;20047;-89
2022/07/04 01:52:59;;;;;;;4.13;2.22;;;;;;;15.17;100.00;99405.00;4897988;29;20126;-89
2022/07/04 01:55:24;;;;;;;5.70;2.15;;;;;;;15.17;100.00;99402.38;4892776;29;20036;-89
2022/07/04 01:57:50;;;;;;;4.13;2.10;;;;;;;15.44;100.00;99388.94;4895968;29;20021;-89
2022/07/04 02:02:59;;;;;;;4.28;2.22;;;;;;;15.53;100.00;99383.16;4908243;29;20542;-90
2022/07/04 02:05:25;;;;;;;2.35;1.98;;;;;;;15.44;100.00;99376.50;4913499;29;20059;-89
2022/07/04 02:07:51;;;;;;;3.38;1.70;;;;;;;15.48;100.00;99380.31;4897206;29;20041;-87
2022/07/04 02:10:17;;;;;;;6.68;2.08;;;;;;;15.60;100.00;99374.31;4889358;29;20048;-90
2022/07/04 02:13:01;;;;;;;4.95;1.85;;;;;;;15.54;100.00;99379.47;4889539;29;20055;-89
2022/07/04 02:15:31;;;;;;;3.50;2.28;;;;;;;15.57;100.00;99376.38;4908074;29;20028;-90
2022/07/04 02:17:57;;;;;;;2.58;1.95;;;;;;;15.56;100.00;99379.25;4893685;29;20024;-89
2022/07/04 02:20:23;;;;;;;3.67;1.67;;;;;;;15.49;100.00;99360.00;4891398;29;20083;-89
2022/07/04 02:22:49;;;;;;;5.45;2.05;;;;;;;15.31;100.00;99356.28;4875979;29;20068;-88
2022/07/04 02:25:15;;;;;;;3.30;1.80;;;;;;;15.59;100.00;99348.91;4908768;29;20084;-88
2022/07/04 02:27:41;;;;;;;4.32;2.03;;;;;;;15.56;100.00;99339.56;4910452;29;20025;-88
2022/07/04 02:30:07;;;;;;;3.47;2.13;;;;;;;15.57;100.00;99339.34;4907431;29;20032;-89
2022/07/04 02:32:33;;;;;;;3.25;2.00;;;;;;;15.36;100.00;99334.47;4909117;29;20028;-89
2022/07/04 02:34:58;;;;;;;5.50;2.03;;;;;;;15.50;100.00;99335.16;4905197;29;20032;-89
2022/07/04 02:37:24;;;;;;;4.50;2.00;;;;;;;15.58;100.00;99332.19;4890488;29;20103;-90
2022/07/04 02:39:50;;;;;;;4.07;2.25;;;;;;;15.70;100.00;99346.31;4888894;29;20475;-89
2022/07/04 02:42:15;;;;;;;6.40;2.25;;;;;;;15.59;100.00;99344.41;4892647;29;20040;-87
2022/07/04 02:44:41;;;;;;;10.68;2.30;;;;;;;15.52;100.00;99343.66;4893399;29;20062;-88
2022/07/04 02:47:07;;;;;;;5.50;2.88;;;;;;;15.65;100.00;99348.00;4906233;29;20614;-87
2022/07/04 02:49:33;;;;;;;7.43;2.85;;;;;;;15.34;100.00;99336.53;4893242;29;20038;-87
2022/07/04 02:51:58;;;;;;;5.00;2.80;;;;;;;15.45;100.00;99337.66;4892928;29;20032;-88
2022/07/04 02:54:24;;;;;;;7.60;2.70;;;;;;;15.31;100.00;99331.66;4889916;29;20039;-88
2022/07/04 02:56:49;;;;;;;6.65;3.05;;;;;;;14.99;100.00;99336.03;4888775;29;20446;-89
2022/07/04 02:59:15;;;;;;;7.40;3.03;;;;;;;14.94;100.00;99341.16;4892320;29;20122;-88
2022/07/04 03:01:41;;;;;;;4.10;2.15;;;;;;;15.25;100.00;99334.16;4910854;29;20075;-88
2022/07/04 03:04:08;;;;;;;10.05;3.55;;;;;;;15.11;100.00;99319.44;4892245;29;20134;-88
2022/07/04 03:06:33;;;;;;;7.65;2.30;;;;;;;15.24;100.00;99318.53;4888330;29;20130;-88
2022/07/04 03:08:59;;;;;;;7.35;2.60;;;;;;;15.35;100.00;99332.88;4903274;29;20493;-88
2022/07/04 03:11:25;;;;;;;8.75;2.70;;;;;;;15.22;100.00;99321.38;4893300;29;20036;-87
2022/07/04 03:13:50;;;;;;;5.95;2.97;;;;;;;15.20;100.00;99320.78;4888871;29;20054;-89
2022/07/04 03:16:16;;;;;;;6.43;2.20;;;;;;;14.88;100.00;99315.56;4873482;29;20039;-89
2022/07/04 03:18:42;;;;;;;7.32;2.50;;;;;;;15.11;100.00;99308.84;4887412;29;20028;-89
2022/07/04 03:21:08;;;;;;;5.38;2.60;;;;;;;14.65;100.00;99308.22;4893326;29;20055;-89
2022/07/04 03:23:34;;;;;;;4.03;2.25;;;;;;;14.92;100.00;99314.09;4875392;29;20041;-89
2022/07/04 03:26:00;;;;;;;7.00;2.58;;;;;;;14.88;100.00;99330.63;4890129;29;20042;-89
2022/07/04 03:28:26;;;;;;;4.50;2.42;;;;;;;14.93;100.00;99330.78;4909197;29;20039;-89
2022/07/04 03:30:52;;;;;;;7.43;3.00;;;;;;;14.57;100.00;99330.41;4893445;29;20039;-89
2022/07/04 03:33:18;;;;;;;5.78;2.67;;;;;;;14.82;100.00;99327.00;4891753;29;20032;-87
2022/07/04 03:35:44;;;;;;;5.45;2.70;;;;;;;14.61;100.00;99325.50;4891857;29;20092;-90
2022/07/04 03:38:10;;;;;;;6.72;2.63;;;;;;;14.50;100.00;99322.53;4888386;29;20033;-88
2022/07/04 03:40:35;;;;;;;4.25;2.33;;;;;;;14.76;100.00;99323.38;4907063;29;20042;-89
2022/07/04 03:43:03;;;;;;;7.28;3.25;;;;;;;14.73;100.00;99333.56;4889054;29;20096;-89
2022/07/04 03:45:29;;;;;;;2.35;2.15;;;;;;;14.59;100.00;99319.63;4909817;29;20115;-88
2022/07/04 03:47:56;;;;;;;3.20;2.90;;;;;;;14.55;100.00;99333.25;4907086;29;20056;-90
2022/07/04 03:50:22;;;;;;;7.43;2.92;;;;;;;14.62;100.00;99335.84;4907856;29;20059;-88
2022/07/04 03:52:47;;;;;;;8.02;2.92;;;;;;;14.63;100.00;99342.75;4908217;29;20082;-89
2022/07/04 03:55:13;;;;;;;4.55;3.00;;;;;;;14.58;100.00;99332.03;4887402;29;20036;-87
2022/07/04 03:57:39;;;;;;;3.67;2.60;;;;;;;14.47;100.00;99328.25;4905257;29;20475;-89
2022/07/04 04:00:05;;;;;;;6.13;3.67;;;;;;;14.51;100.00;99344.44;4904651;29;20028;-88
2022/07/04 04:02:31;;;;;;;5.72;2.80;;;;;;;14.51;100.00;99333.88;4906641;29;20039;-88
2022/07/04 04:07:40;;;;;;;6.82;3.63;;;;;;;14.48;100.00;99347.53;4905692;29;20040;-88
2022/07/04 04:10:07;;;;;;;4.60;4.00;;;;;;;14.08;100.00;99351.97;4903571;29;20127;-88
2022/07/04 04:12:35;;;;;;;6.85;4.30;;;;;;;14.55;100.00;99353.59;4889746;29;20456;-88
2022/07/04 04:15:01;;;;;;;6.95;5.75;;;;;;;14.09;100.00;99321.94;4903966;29;20075;-89
2022/07/04 04:17:27;;;;;;;8.18;7.47;;;;;;;14.12;100.00;99345.25;4888953;29;20028;-88
2022/07/04 04:19:53;;;;;;;12.35;7.82;;;;;;;14.28;100.00;99351.91;4907836;29;20033;-89
2022/07/04 04:22:18;;;;;;;10.70;9.25;;;;;;;14.27;100.00;99354.75;4909077;29;20499;-88
2022/07/04 04:24:44;;;;;;;10.23;9.15;;;;;;;14.43;100.00;99330.47;4889814;29;20115;-88
2022/07/04 04:27:09;;;;;;;10.52;8.25;;;;;;;14.63;100.00;99336.66;4905148;29;20029;-89
2022/07/04 04:29:35;;;;;;;13.30;9.32;;;;;;;14.68;100.00;99321.78;4890216;29;20398;-89
2022/07/04 04:32:00;;;;;;;9.75;7.32;;;;;;;14.37;100.00;99338.44;4889758;29;20526;-90
2022/07/04 04:34:26;;;;;;;9.38;7.43;;;;;;;14.13;100.00;99320.47;4905578;29;20029;-89
2022/07/04 04:36:52;;;;;;;14.50;7.85;;;;;;;14.43;100.00;99335.75;4908092;29;20025;-90
2022/07/04 04:39:17;;;;;;;8.55;6.85;;;;;;;14.85;100.00;99326.56;4891804;29;20041;-89
2022/07/04 04:41:43;;;;;;;10.13;7.05;;;;;;;14.94;100.00;99329.75;4892127;29;20032;-91
2022/07/04 04:44:08;;;;;;;10.93;6.10;;;;;;;14.68;100.00;99334.19;4905315;29;20384;-89
2022/07/04 04:46:34;;;;;;;7.18;6.13;;;;;;;14.68;100.00;99319.13;4893425;29;20046;-89
2022/07/04 04:48:59;;;;;;;7.18;5.28;;;;;;;15.13;100.00;99310.28;4889166;29;20060;-88
2022/07/04 04:51:25;;;;;;;9.93;5.68;;;;;;;14.74;100.00;99300.84;4889992;29;20032;-89
2022/07/04 04:53:50;;;;;;;6.32;4.90;;;;;;;14.49;100.00;99291.84;4887504;29;20036;-89
2022/07/04 04:56:16;;;;;;;7.25;4.70;;;;;;;14.82;100.00;99288.16;4904768;29;20028;-88
2022/07/04 04:58:42;;;;;;;7.00;4.40;;;;;;;14.76;100.00;99310.16;4906346;29;20032;-90
2022/07/04 05:01:08;;;;;;;7.18;4.35;;;;;;;14.82;100.00;99330.44;4892225;29;20036;-88
2022/07/04 05:03:34;;;;;;;6.43;4.22;;;;;;;14.78;100.00;99318.69;4908993;29;20087;-88
2022/07/04 05:06:00;;;;;;;7.75;4.35;;;;;;;14.95;100.00;99313.69;4870947;29;20036;-88
2022/07/04 05:08:26;;;;;;;7.13;4.32;;;;;;;15.42;100.00;99321.16;4908796;29;20029;-88
2022/07/04 05:10:52;;;;;;;8.43;4.30;;;;;;;15.26;100.00;99338.41;4890563;29;20032;-88
2022/07/04 05:13:18;;;;;;;5.97;4.25;;;;;;;15.34;100.00;99331.25;4889101;29;20397;-88
2022/07/04 05:15:46;;;;;;;9.50;4.10;;;;;;;15.77;100.00;99330.38;4909462;29;20491;-89
2022/07/04 05:18:12;;;;;;;6.40;4.30;;;;;;;15.39;100.00;99344.63;4908677;29;20032;-89
2022/07/04 05:20:39;;;;;;;6.63;4.20;;;;;;;15.43;100.00;99337.84;4890804;29;20051;-89
2022/07/04 05:23:05;;;;;;;5.45;4.25;;;;;;;15.46;100.00;99331.34;4909302;29;20040;-88
2022/07/04 05:25:32;;;;;;;6.75;4.32;;;;;;;15.78;100.00;99321.41;4897968;29;20036;-87
2022/07/04 05:27:58;;;;;;;6.88;4.45;;;;;;;15.37;100.00;99304.34;4904311;29;20096;-90
2022/07/04 05:30:25;;;;;;;8.75;5.18;;;;;;;15.19;100.00;99321.00;4872635;29;20028;-89
2022/07/04 05:32:50;;;;;;;8.52;5.40;;;;;;;15.46;100.00;99292.44;4882626;29;20036;-87
2022/07/04 05:35:16;;;;;;;7.10;4.90;;;;;;;15.61;100.00;99307.94;4890744;29;20701;-89
2022/07/04 05:37:45;;;;;;;10.05;5.05;;;;;;;15.44;100.00;99299.78;4887146;29;20047;-87
2022/07/04 05:40:16;;;;;;;12.93;4.90;;;;;;;15.67;100.00;99298.31;4889344;29;20032;-88
2022/07/04 05:42:50;;;;;;;7.05;4.57;;;;;;;15.52;100.00;99290.75;4870792;29;20444;-88
2022/07/04 05:45:22;;;;;;;6.95;4.18;;;;;;;15.77;100.00;99280.09;4887846;29;20483;-89
2022/07/04 05:47:47;;;;;;;7.03;4.13;;;;;;;16.01;100.00;99287.34;4881529;29;20036;-89
2022/07/04 05:50:13;;;;;;;4.20;3.40;;;;;;;15.69;100.00;99288.31;4873944;29;20042;-89
2022/07/04 05:53:35;;;;;;;7.57;2.80;;;;;;;15.78;100.00;99300.22;4906410;29;20024;-88
2022/07/04 06:00:01;;;;;;;6.80;3.65;;;;;;;16.56;100.00;99326.13;4905797;29;20047;-90
2022/07/04 06:02:27;;;;;;;6.28;3.75;;;;;;;16.31;100.00;99324.44;4903695;29;20120;-89
2022/07/04 06:04:52;;;;;;;6.60;4.45;;;;;;;16.49;100.00;99320.91;4884454;29;20060;-89
2022/07/04 06:07:18;;;;;;;6.90;4.80;;;;;;;16.72;100.00;99326.50;4874448;29;20033;-87
2022/07/04 06:09:45;;;;;;;8.70;4.90;;;;;;;16.23;100.00;99335.34;4904392;29;20040;-81
2022/07/04 06:12:10;;;;;;;7.15;5.10;;;;;;;16.47;100.00;99330.94;4905055;29;20391;-86
2022/07/04 06:14:36;;;;;;;7.25;6.40;;;;;;;15.99;100.00;99341.31;4893175;29;20051;-85
2022/07/04 06:17:01;;;;;;;9.70;6.85;;;;;;;16.13;100.00;99334.03;4874732;29;20054;-84
2022/07/04 06:19:27;;;;;;;9.68;7.75;;;;;;;15.74;100.00;99332.66;4908340;29;20503;-85
2022/07/04 06:21:53;;;;;;;10.10;7.20;;;;;;;15.59;100.00;99338.31;4888665;29;20035;-84
2022/07/04 06:24:18;;;;;;;8.00;6.53;;;;;;;15.84;100.00;99333.75;4907752;29;20035;-85
2022/07/04 06:26:44;;;;;;;9.25;6.90;;;;;;;15.57;100.00;99320.81;4889861;29;20060;-82
2022/07/04 06:29:09;;;;;;;6.97;6.30;;;;;;;15.75;100.00;99315.75;4910320;29;20080;-83
2022/07/04 06:31:35;;;;;;;7.90;6.65;;;;;;;15.59;100.00;99314.50;4892616;29;20040;-86
2022/07/04 06:36:45;;;;;;;8.32;6.15;;;;;;;16.62;100.00;99325.19;4903620;29;20036;-85
2022/07/04 06:39:11;;;;;;;7.50;4.80;;;;;;;16.21;100.00;99319.69;4910130;29;20029;-90
2022/07/04 06:41:37;;;;;;;5.93;5.03;;;;;;;16.07;100.00;99316.38;4909293;29;20090;-89
2022/07/04 06:44:04;;;;;;;8.40;5.10;;;;;;;15.59;100.00;99317.94;4905936;29;20028;-87
2022/07/04 06:46:30;;;;;;;5.97;4.80;;;;;;;15.78;100.00;99321.41;4898843;29;20028;-89
2022/07/04 06:48:56;;;;;;;6.55;4.80;;;;;;;16.10;100.00;99310.63;4910429;29;20041;-89
2022/07/04 06:51:23;;;;;;;7.38;4.50;;;;;;;15.94;100.00;99324.50;4907751;29;20036;-84
2022/07/04 06:53:48;;;;;;;4.75;4.18;;;;;;;15.93;100.00;99317.59;4890252;29;20036;-85
2022/07/04 06:56:14;;;;;;;4.88;3.55;;;;;;;16.69;100.00;99307.34;4908946;29;20048;-85
2022/07/04 07:01:50;;;;;;;3.80;2.38;;;;;;;16.50;100.00;99295.22;4907506;29;20355;-84
2022/07/04 07:04:44;;;;;;;3.35;1.90;;;;;;;16.25;100.00;99286.41;4888461;29;20478;-89
2022/07/04 07:07:15;;;;;;;;;;;;;;;15.92;100.00;99327.38;4876906;29;20048;-85
2022/07/04 07:09:43;;;;;;;8.38;1.63;;;;;;;15.99;100.00;99304.25;4874466;29;19926;-87
2022/07/04 07:12:11;;;;;;;3.47;1.42;;;;;;;16.35;100.00;99325.59;4890402;29;20442;-85
2022/07/04 07:14:37;;;;;;;4.72;1.15;;;;;;;16.46;100.00;99313.44;4873860;29;20399;-84
2022/07/04 07:17:03;;;;;;;2.88;1.27;;;;;;;16.67;100.00;99314.72;4909625;29;20028;-82
2022/07/04 07:19:28;;;;;;;3.05;1.42;;;;;;;16.54;100.00;99312.28;4908010;29;20040;-88
2022/07/04 07:21:54;;;;;;;4.20;1.30;;;;;;;16.41;100.00;99335.28;4876229;29;20036;-88
2022/07/04 07:24:19;;;;;;;3.97;1.70;;;;;;;16.75;100.00;99328.69;4907179;29;20028;-89
2022/07/04 07:26:45;;;;;;;4.50;1.60;;;;;;;17.52;100.00;99330.47;4894137;29;20063;-90
2022/07/04 07:29:11;;;;;;;4.35;1.50;;;;;;;16.57;100.00;99340.97;4893342;29;20028;-85
2022/07/04 07:31:36;;;;;;;3.42;1.45;;;;;;;17.77;99.16;99350.63;4906611;29;20044;-89
2022/07/04 07:34:02;;;;;;;2.03;1.83;;;;;;;16.59;100.00;99346.88;4892389;29;20119;-90
2022/07/04 07:36:28;;;;;;;2.13;1.92;;;;;;;16.60;100.00;99337.88;4873146;29;20039;-88
2022/07/04 07:38:55;;;;;;;5.38;2.10;;;;;;;17.46;99.62;99352.59;4890335;29;20065;-89
2022/07/04 07:41:21;;;;;;;2.58;2.05;;;;;;;16.85;100.00;99363.38;4890654;29;20423;-90
2022/07/04 07:43:49;;;;;;;2.67;2.33;;;;;;;16.91;100.00;99351.91;4872390;29;20036;-90
2022/07/04 07:46:14;;;;;;;3.50;2.35;;;;;;;17.45;99.32;99353.66;4889102;29;20099;-89
2022/07/04 07:48:40;;;;;;;2.78;2.00;;;;;;;18.02;97.40;99360.16;4873486;29;20047;-90
2022/07/04 07:51:05;;;;;;;3.55;2.00;;;;;;;17.38;98.56;99366.25;4906748;29;20044;-89
2022/07/04 07:53:31;;;;;;;2.55;1.80;;;;;;;17.05;99.59;99359.66;4888071;29;20035;-89
2022/07/04 07:55:57;;;;;;;3.75;1.63;;;;;;;16.85;99.12;99355.44;4873329;29;20042;-89
2022/07/04 07:58:23;;;;;;;4.68;1.33;;;;;;;17.62;98.25;99369.69;4888693;29;20394;-91
2022/07/04 08:00:48;;;;;;;1.65;1.50;;;;;;;18.32;95.93;99374.25;4907081;29;20452;-89
2022/07/04 08:05:58;;;;;;;1.92;1.50;;;;;;;19.11;92.59;99381.47;4889893;29;20123;-86
2022/07/04 08:08:23;;;;;;;3.45;2.10;;;;;;;19.18;91.29;99377.88;4906715;29;20450;-88
2022/07/04 08:10:49;;;;;;;2.60;1.63;;;;;;;18.67;92.05;99390.06;4906613;29;20119;-88
2022/07/04 08:13:15;;;;;;;4.55;2.10;;;;;;;18.41;91.69;99386.13;4906431;29;20056;-88
2022/07/04 08:15:40;;;;;;;3.67;2.15;;;;;;;18.65;91.94;99391.34;4903173;29;20040;-88
2022/07/04 08:18:08;;;;;;;6.75;1.70;;;;;;;18.18;92.01;99365.78;4907610;29;20386;-89
2022/07/04 08:20:34;;;;;;;2.20;2.00;;;;;;;19.04;89.42;99361.41;4903182;29;20106;-89
2022/07/04 08:22:59;;;;;;;2.83;1.67;;;;;;;18.70;88.92;99363.00;4906049;29;20032;-87
2022/07/04 08:25:25;;;;;;;3.00;1.70;;;;;;;19.28;87.20;99364.69;4906878;29;20411;-87
2022/07/04 08:27:50;;;;;;;2.40;1.80;;;;;;;19.81;87.89;99362.47;4904290;29;20040;-86
2022/07/04 08:30:16;;;;;;;1.58;1.48;;;;;;;19.91;86.57;99353.00;4902220;29;20077;-86
2022/07/04 08:32:41;;;;;;;3.03;1.67;;;;;;;20.11;84.88;99350.59;4888395;29;20043;-86
2022/07/04 08:35:07;;;;;;;2.28;1.30;;;;;;;19.84;84.31;99364.63;4905038;29;20040;-86
2022/07/04 08:37:33;;;;;;;1.60;1.50;;;;;;;19.67;83.18;99379.88;4890649;29;20028;-85
2022/07/04 08:39:59;;;;;;;3.33;1.50;;;;;;;19.49;85.34;99376.44;4905014;29;20039;-82
2022/07/04 08:42:24;;;;;;;2.20;1.40;;;;;;;19.40;85.34;99377.91;4908632;29;20040;-83
2022/07/04 08:44:55;;;;;;;3.53;1.60;;;;;;;18.94;85.77;99388.63;4886372;29;20394;-87
2022/07/04 08:47:23;;;;;;;1.95;1.48;;;;;;;18.34;87.12;99396.91;4892998;29;20040;-83
2022/07/04 08:50:11;;;;;;;2.63;1.73;;;;;;;18.76;86.92;99398.44;4905405;29;20115;-84
2022/07/04 08:52:40;;;;;;;4.13;1.80;;;;;;;19.31;86.65;99395.34;4886344;29;20051;-85
2022/07/04 08:58:38;;;;;;;2.65;1.90;;;;;;;19.19;85.81;99390.91;4903347;29;20040;-85
2022/07/04 09:00:45;;;;;;;2.83;1.63;;;;;;;19.20;85.80;99386.41;4899780;29;20041;-83
2022/07/04 09:03:11;;;;;;;2.22;1.50;;;;;;;19.82;83.19;99388.03;4889495;29;20569;-84
2022/07/04 09:05:37;;;;;;;2.08;1.50;;;;;;;20.26;82.62;99391.81;4904949;29;20056;-84
2022/07/04 09:08:03;;;;;;;2.22;1.60;;;;;;;19.08;84.48;99394.47;4870802;29;20115;-85
2022/07/04 09:10:30;;;;;;;2.75;1.60;;;;;;;19.24;84.39;99404.28;4888956;29;20490;-84
2022/07/04 09:12:56;;;;;;;2.50;1.65;;;;;;;19.45;84.53;99401.13;4904059;29;20036;-84
2022/07/04 09:15:21;;;;;;;2.80;1.60;;;;;;;19.44;83.69;99402.97;4909136;29;20056;-86
2022/07/04 09:17:47;;;;;;;1.63;1.52;;;;;;;19.50;84.04;99406.53;4904996;29;20024;-85
2022/07/04 09:20:18;;;;;;;4.13;1.83;;;;;;;19.79;81.84;99404.53;4904116;29;20025;-84
2022/07/04 09:22:46;;;;;;;2.65;1.60;;;;;;;19.98;82.96;99402.41;4907550;29;20039;-85
2022/07/04 09:25:16;;;;;;;1.92;1.60;;;;;;;20.02;79.60;99407.25;4879460;29;20074;-85
2022/07/04 09:27:47;;;;;;;3.92;1.77;;;;;;;19.55;77.62;99402.09;4903645;29;20039;-85
2022/07/04 09:30:15;;;;;;;2.17;1.80;;;;;;;19.83;77.30;99410.97;4888694;29;20044;-84
2022/07/04 09:32:54;;;;;;;3.92;1.98;;;;;;;19.07;77.88;99412.28;4906485;29;20137;-85
2022/07/04 09:35:22;;;;;;;2.03;1.83;;;;;;;19.02;78.74;99427.34;4908801;29;20032;-83
2022/07/04 09:37:54;;;;;;;3.75;2.00;;;;;;;19.13;78.96;99418.50;4907735;29;20039;-84
2022/07/04 09:40:28;;;;;;;2.42;1.80;;;;;;;19.64;77.09;99415.78;4906361;29;20035;-85
2022/07/04 09:42:57;;;;;;;2.28;1.75;;;;;;;20.81;75.13;99415.81;4907308;29;20063;-85
2022/07/04 09:45:24;;;;;;;2.20;2.05;;;;;;;20.08;74.59;99412.38;4911879;29;20055;-85
2022/07/04 09:47:55;;;;;;;1.90;1.80;;;;;;;18.86;77.01;99411.09;4908839;29;20036;-85
2022/07/04 09:50:22;;;;;;;2.10;1.90;;;;;;;18.94;77.60;99426.69;4893617;29;20024;-85
2022/07/04 09:53:02;;;;;;;2.60;2.00;;;;;;;19.03;77.67;99418.31;4901804;29;20096;-84
2022/07/04 09:55:29;;;;;;;5.13;1.90;;;;;;;18.22;79.87;99438.63;4890122;29;20033;-85
2022/07/04 09:58:00;;;;;;;3.55;2.17;;;;;;;18.54;79.20;99422.25;4893368;29;20024;-85
2022/07/04 10:00:28;;;;;;;1.98;1.77;;;;;;;18.66;79.51;99441.59;4905302;29;20049;-83
2022/07/04 10:02:55;;;;;;;2.03;1.90;;;;;;;18.10;81.90;99439.50;4910848;29;20036;-80
2022/07/04 10:05:24;;;;;;;3.33;1.92;;;;;;;18.25;82.93;99451.44;4899476;29;20119;-79
2022/07/04 10:07:49;;;;;;;1.70;1.60;;;;;;;19.08;80.74;99450.34;4906330;29;20036;-79
2022/07/04 10:10:23;;;;;;;4.13;1.80;;;;;;;18.07;82.70;99449.78;4899227;29;20062;-79
2022/07/04 10:12:50;;;;;;;6.65;1.95;;;;;;;18.89;82.24;99447.88;4901681;29;21005;-79
2022/07/04 10:15:16;;;;;;;5.00;1.90;;;;;;;19.15;81.30;99443.00;4896931;29;20037;-79
2022/07/04 10:17:42;;;;;;;4.95;2.20;;;;;;;19.58;80.64;99446.06;4903194;29;20042;-79
2022/07/04 10:20:10;;;;;;;4.22;2.10;;;;;;;19.12;80.01;99432.84;4898629;29;20476;-79
2022/07/04 10:22:37;;;;;;;3.97;1.90;;;;;;;18.86;80.50;99452.84;4883042;29;20028;-79
2022/07/04 10:25:07;;;;;;;3.83;2.35;;;;;;;19.37;79.56;99460.91;4905414;29;20449;-79
2022/07/04 10:27:33;;;;;;;3.88;1.90;;;;;;;19.66;78.66;99463.50;4882239;29;20036;-79
2022/07/04 10:30:00;;;;;;;3.05;1.88;;;;;;;19.54;78.67;99448.41;4903047;29;20032;-81
2022/07/04 10:32:27;;;;;;;4.03;1.90;;;;;;;19.34;78.57;99461.41;4903462;29;20372;-80
2022/07/04 10:34:53;;;;;;;5.30;2.08;;;;;;;19.31;79.22;99456.56;4884402;29;20029;-85
2022/07/04 10:37:18;;;;;;;2.92;2.22;;;;;;;19.41;78.84;99457.53;4905414;29;20051;-84
2022/07/04 10:39:44;;;;;;;2.33;2.00;;;;;;;18.69;80.23;99456.28;4908916;29;20032;-83
2022/07/04 10:42:23;;;;;;;2.38;2.03;;;;;;;18.72;81.34;99458.47;4907483;29;20115;-84
2022/07/04 10:44:53;;;;;;;4.50;2.50;;;;;;;18.70;82.03;99458.72;4887520;29;20043;-84
2022/07/04 10:47:36;;;;;;;2.17;1.88;;;;;;;19.06;81.74;99460.41;4899536;29;20044;-84
2022/07/04 10:50:02;;;;;;;5.60;2.30;;;;;;;18.91;81.37;99444.97;4887491;29;20048;-83
2022/07/04 10:52:28;;;;;;;2.78;2.00;;;;;;;19.58;80.81;99446.06;4903194;29;20025;-83
2022/07/04 10:54:53;;;;;;;10.20;2.33;;;;;;;18.87;80.11;99455.28;4883018;29;20048;-84
2022/07/04 10:57:20;;;;;;;4.53;2.25;;;;;;;19.29;78.74;99434.72;4905300;29;20020;-84
2022/07/04 10:59:52;;;;;;;4.15;2.05;;;;;;;18.90;78.52;99452.16;4890049;29;20403;-84
2022/07/04 11:02:17;;;;;;;6.07;2.25;;;;;;;19.55;78.05;99447.34;4887844;29;22043;-85
2022/07/04 11:04:52;;;;;;;4.40;2.30;;;;;;;19.63;77.54;99442.66;4903842;29;20030;-84
2022/07/04 11:07:40;;;;;;;5.20;2.30;;;;;;;20.34;75.70;99443.84;4903670;29;20103;-85
2022/07/04 11:10:12;;;;;;;3.95;2.38;;;;;;;20.32;75.25;99448.63;4903107;29;20028;-86
2022/07/04 11:12:53;;;;;;;2.75;2.15;;;;;;;21.16;74.67;99441.19;4909392;29;20052;-85
2022/07/04 11:15:32;;;;;;;2.33;2.10;;;;;;;19.84;76.15;99449.06;4907297;29;20040;-86
2022/07/04 11:18:02;;;;;;;6.40;2.35;;;;;;;19.73;76.16;99440.16;4891270;29;20390;-86
2022/07/04 11:20:30;;;;;;;7.07;2.33;;;;;;;19.71;76.88;99447.56;4903392;29;20033;-85
2022/07/04 11:23:09;;;;;;;4.47;2.38;;;;;;;20.54;75.30;99443.28;4908159;29;20044;-85
2022/07/04 11:25:35;;;;;;;3.08;2.20;;;;;;;19.89;76.42;99437.69;4900876;29;20032;-86
2022/07/04 11:28:19;;;;;;;2.30;2.10;;;;;;;20.44;73.72;99445.81;4907519;29;20063;-85
2022/07/04 11:30:54;;;;;;;7.15;2.15;;;;;;;20.36;74.21;99439.88;4906632;29;20040;-84
2022/07/04 11:33:22;;;;;;;2.65;2.00;;;;;;;19.98;74.61;99445.03;4889401;29;20048;-86
2022/07/04 11:36:07;;;;;;;3.53;2.10;;;;;;;20.05;74.72;99455.53;4904251;29;20399;-85
2022/07/04 11:38:56;;;;;;;2.72;1.90;;;;;;;19.29;75.94;99464.00;4890144;29;20036;-86
2022/07/04 11:47:12;;;;;;;3.40;2.00;;;;;;;18.53;78.60;99473.81;4903589;29;20060;-85
2022/07/04 11:49:55;;;;;;;2.30;2.10;;;;;;;18.60;78.66;99469.16;4905624;29;20039;-86
2022/07/04 11:52:23;;;;;;;3.03;1.73;;;;;;;18.58;79.26;99476.56;4905537;29;20032;-84
2022/07/04 11:54:49;;;;;;;3.47;1.85;;;;;;;18.92;80.15;99475.81;4905332;29;20028;-85